sensor_id;sensor_type;location;lat;lon;timestamp;temperature;humidity
11221;DHT22;8517;53.546;10.104;2023-05-07T00:00:42;11.60;99.90
11221;DHT22;8517;53.546;10.104;2023-05-07T00:03:09;11.60;99.90
11221;DHT22;8517;53.546;10.104;2023-05-07T00:05:38;11.60;99.90
11221;DHT22;8517;53.546;10.104;2023-05-07T00:08:05;11.60;99.90
11221;DHT22;8517;53.546;10.104;2023-05-07T00:10:32;11.60;99.90
11221;DHT22;8517;53.546;10.104;2023-05-07T00:12:59;11.60;99.90
11221;DHT22;8517;53.546;10.104;2023-05-07T00:15:26;11.60;99.90
11221;DHT22;8517;53.546;10.104;2023-05-07T00:17:53;11.60;99.90
11221;DHT22;8517;53.546;10.104;2023-05-07T00:20:20;11.60;99.90
11221;DHT22;8517;53.546;10.104;2023-05-07T00:22:48;11.60;99.90
11221;DHT22;8517;53.546;10.104;2023-05-07T00:25:15;11.60;99.90
11221;DHT22;8517;53.546;10.104;2023-05-07T00:27:42;11.60;99.90
11221;DHT22;8517;53.546;10.104;2023-05-07T00:30:09;11.60;99.90
11221;DHT22;8517;53.546;10.104;2023-05-07T00:32:37;11.60;99.90
11221;DHT22;8517;53.546;10.104;2023-05-07T00:35:04;11.60;99.90
11221;DHT22;8517;53.546;10.104;2023-05-07T00:37:31;11.70;99.90
11221;DHT22;8517;53.546;10.104;2023-05-07T00:39:59;11.60;99.90
11221;DHT22;8517;53.546;10.104;2023-05-07T00:42:29;11.60;99.90
11221;DHT22;8517;53.546;10.104;2023-05-07T00:44:57;11.70;99.90
11221;DHT22;8517;53.546;10.104;2023-05-07T00:47:25;11.70;99.90
11221;DHT22;8517;53.546;10.104;2023-05-07T00:49:52;11.70;99.90
11221;DHT22;8517;53.546;10.104;2023-05-07T00:52:20;11.70;99.90
11221;DHT22;8517;53.546;10.104;2023-05-07T00:54:48;11.60;99.90
11221;DHT22;8517;53.546;10.104;2023-05-07T00:57:16;11.70;99.90
11221;DHT22;8517;53.546;10.104;2023-05-07T00:59:43;11.70;99.90
11221;DHT22;8517;53.546;10.104;2023-05-07T01:02:10;11.70;99.90
11221;DHT22;8517;53.546;10.104;2023-05-07T01:04:37;11.60;99.90
11221;DHT22;8517;53.546;10.104;2023-05-07T01:07:05;11.60;99.90
11221;DHT22;8517;53.546;10.104;2023-05-07T01:09:32;11.60;99.90
11221;DHT22;8517;53.546;10.104;2023-05-07T01:12:00;11.60;99.90
11221;DHT22;8517;53.546;10.104;2023-05-07T01:14:29;11.60;99.90
11221;DHT22;8517;53.546;10.104;2023-05-07T01:16:56;11.70;99.90
11221;DHT22;8517;53.546;10.104;2023-05-07T01:19:24;11.60;99.90
11221;DHT22;8517;53.546;10.104;2023-05-07T01:21:56;11.60;99.90
11221;DHT22;8517;53.546;10.104;2023-05-07T01:24:27;11.60;99.90
11221;DHT22;8517;53.546;10.104;2023-05-07T01:26:54;11.70;99.90
11221;DHT22;8517;53.546;10.104;2023-05-07T01:29:21;11.60;99.90
11221;DHT22;8517;53.546;10.104;2023-05-07T01:31:48;11.70;99.90
11221;DHT22;8517;53.546;10.104;2023-05-07T01:34:17;11.60;99.90
11221;DHT22;8517;53.546;10.104;2023-05-07T01:36:46;11.60;99.90
11221;DHT22;8517;53.546;10.104;2023-05-07T01:39:13;11.60;99.90
11221;DHT22;8517;53.546;10.104;2023-05-07T01:41:43;11.60;99.90
11221;DHT22;8517;53.546;10.104;2023-05-07T01:44:11;11.60;99.90
11221;DHT22;8517;53.546;10.104;2023-05-07T01:46:40;11.60;99.90
11221;DHT22;8517;53.546;10.104;2023-05-07T01:49:07;11.60;99.90
11221;DHT22;8517;53.546;10.104;2023-05-07T01:51:37;11.50;99.90
11221;DHT22;8517;53.546;10.104;2023-05-07T01:54:04;11.60;99.90
11221;DHT22;8517;53.546;10.104;2023-05-07T01:56:32;11.50;99.90
11221;DHT22;8517;53.546;10.104;2023-05-07T01:59:00;11.50;99.90
11221;DHT22;8517;53.546;10.104;2023-05-07T02:01:27;11.60;99.90
11221;DHT22;8517;53.546;10.104;2023-05-07T02:03:54;11.50;99.90
11221;DHT22;8517;53.546;10.104;2023-05-07T02:06:21;11.60;99.90
11221;DHT22;8517;53.546;10.104;2023-05-07T02:08:47;11.50;99.90
11221;DHT22;8517;53.546;10.104;2023-05-07T02:11:15;11.50;99.90
11221;DHT22;8517;53.546;10.104;2023-05-07T02:13:41;11.50;99.90
11221;DHT22;8517;53.546;10.104;2023-05-07T02:16:10;11.60;99.90
11221;DHT22;8517;53.546;10.104;2023-05-07T02:18:39;11.50;99.90
11221;DHT22;8517;53.546;10.104;2023-05-07T02:21:05;11.60;99.90
11221;DHT22;8517;53.546;10.104;2023-05-07T02:23:32;11.50;99.90
11221;DHT22;8517;53.546;10.104;2023-05-07T02:25:59;11.50;99.90
11221;DHT22;8517;53.546;10.104;2023-05-07T02:28:26;11.50;99.90
11221;DHT22;8517;53.546;10.104;2023-05-07T02:30:53;11.50;99.90
11221;DHT22;8517;53.546;10.104;2023-05-07T02:33:21;11.50;99.90
11221;DHT22;8517;53.546;10.104;2023-05-07T02:35:48;11.50;99.90
11221;DHT22;8517;53.546;10.104;2023-05-07T02:38:15;11.50;99.90
11221;DHT22;8517;53.546;10.104;2023-05-07T02:40:41;11.50;99.90
11221;DHT22;8517;53.546;10.104;2023-05-07T02:43:09;11.50;99.90
11221;DHT22;8517;53.546;10.104;2023-05-07T02:45:36;11.60;99.90
11221;DHT22;8517;53.546;10.104;2023-05-07T02:48:04;11.50;99.90
11221;DHT22;8517;53.546;10.104;2023-05-07T02:50:33;11.50;99.90
11221;DHT22;8517;53.546;10.104;2023-05-07T02:53:00;11.50;99.90
11221;DHT22;8517;53.546;10.104;2023-05-07T02:55:27;11.50;99.90
11221;DHT22;8517;53.546;10.104;2023-05-07T02:57:53;11.50;99.90
11221;DHT22;8517;53.546;10.104;2023-05-07T03:00:21;11.60;99.90
11221;DHT22;8517;53.546;10.104;2023-05-07T03:02:49;11.60;99.90
11221;DHT22;8517;53.546;10.104;2023-05-07T03:05:16;11.50;99.90
11221;DHT22;8517;53.546;10.104;2023-05-07T03:07:44;11.60;99.90
11221;DHT22;8517;53.546;10.104;2023-05-07T03:10:12;11.60;99.90
11221;DHT22;8517;53.546;10.104;2023-05-07T03:12:39;11.50;99.90
11221;DHT22;8517;53.546;10.104;2023-05-07T03:15:07;11.50;99.90
11221;DHT22;8517;53.546;10.104;2023-05-07T03:17:34;11.60;99.90
11221;DHT22;8517;53.546;10.104;2023-05-07T03:20:01;11.50;99.90
11221;DHT22;8517;53.546;10.104;2023-05-07T03:22:28;11.50;99.90
11221;DHT22;8517;53.546;10.104;2023-05-07T03:25:01;11.50;99.90
11221;DHT22;8517;53.546;10.104;2023-05-07T03:27:27;11.50;99.90
11221;DHT22;8517;53.546;10.104;2023-05-07T03:29:54;11.50;99.90
11221;DHT22;8517;53.546;10.104;2023-05-07T03:32:21;11.50;99.90
11221;DHT22;8517;53.546;10.104;2023-05-07T03:34:48;11.50;99.90
11221;DHT22;8517;53.546;10.104;2023-05-07T03:37:15;11.60;99.90
11221;DHT22;8517;53.546;10.104;2023-05-07T03:39:42;11.50;99.90
11221;DHT22;8517;53.546;10.104;2023-05-07T03:42:11;11.50;99.90
11221;DHT22;8517;53.546;10.104;2023-05-07T03:44:37;11.50;99.90
11221;DHT22;8517;53.546;10.104;2023-05-07T03:47:05;11.60;99.90
11221;DHT22;8517;53.546;10.104;2023-05-07T03:49:32;11.60;99.90
11221;DHT22;8517;53.546;10.104;2023-05-07T03:51:59;11.60;99.90
11221;DHT22;8517;53.546;10.104;2023-05-07T03:54:26;11.60;99.90
11221;DHT22;8517;53.546;10.104;2023-05-07T03:56:53;11.60;99.90
11221;DHT22;8517;53.546;10.104;2023-05-07T03:59:21;11.60;99.90
11221;DHT22;8517;53.546;10.104;2023-05-07T04:01:48;11.60;99.90
11221;DHT22;8517;53.546;10.104;2023-05-07T04:04:16;11.70;99.90
11221;DHT22;8517;53.546;10.104;2023-05-07T04:06:47;11.70;99.90
11221;DHT22;8517;53.546;10.104;2023-05-07T04:09:14;11.70;99.90
11221;DHT22;8517;53.546;10.104;2023-05-07T04:11:41;11.70;99.90
11221;DHT22;8517;53.546;10.104;2023-05-07T04:14:07;11.60;99.90
11221;DHT22;8517;53.546;10.104;2023-05-07T04:16:36;11.70;99.90
11221;DHT22;8517;53.546;10.104;2023-05-07T04:19:03;11.70;99.90
11221;DHT22;8517;53.546;10.104;2023-05-07T04:21:29;11.60;99.90
11221;DHT22;8517;53.546;10.104;2023-05-07T04:23:56;11.60;99.90
11221;DHT22;8517;53.546;10.104;2023-05-07T04:26:23;11.60;99.90
11221;DHT22;8517;53.546;10.104;2023-05-07T04:28:50;11.60;99.90
11221;DHT22;8517;53.546;10.104;2023-05-07T04:31:17;11.60;99.90
11221;DHT22;8517;53.546;10.104;2023-05-07T04:33:45;11.60;99.90
11221;DHT22;8517;53.546;10.104;2023-05-07T04:36:14;11.60;99.90
11221;DHT22;8517;53.546;10.104;2023-05-07T04:38:41;11.60;99.90
11221;DHT22;8517;53.546;10.104;2023-05-07T04:41:09;11.60;99.90
11221;DHT22;8517;53.546;10.104;2023-05-07T04:43:36;11.60;99.90
11221;DHT22;8517;53.546;10.104;2023-05-07T04:46:03;11.50;99.90
11221;DHT22;8517;53.546;10.104;2023-05-07T04:48:30;11.50;99.90
11221;DHT22;8517;53.546;10.104;2023-05-07T04:50:58;11.60;99.90
11221;DHT22;8517;53.546;10.104;2023-05-07T04:53:25;11.60;99.90
11221;DHT22;8517;53.546;10.104;2023-05-07T04:55:55;11.60;99.90
11221;DHT22;8517;53.546;10.104;2023-05-07T04:58:22;11.60;99.90
11221;DHT22;8517;53.546;10.104;2023-05-07T05:00:52;11.60;99.90
11221;DHT22;8517;53.546;10.104;2023-05-07T05:03:19;11.50;99.90
11221;DHT22;8517;53.546;10.104;2023-05-07T05:05:46;11.60;99.90
11221;DHT22;8517;53.546;10.104;2023-05-07T05:08:16;11.60;99.90
11221;DHT22;8517;53.546;10.104;2023-05-07T05:10:44;11.60;99.90
11221;DHT22;8517;53.546;10.104;2023-05-07T05:13:11;11.60;99.90
11221;DHT22;8517;53.546;10.104;2023-05-07T05:15:38;11.60;99.90
11221;DHT22;8517;53.546;10.104;2023-05-07T05:18:05;11.60;99.90
11221;DHT22;8517;53.546;10.104;2023-05-07T05:20:32;11.70;99.90
11221;DHT22;8517;53.546;10.104;2023-05-07T05:22:59;11.70;99.90
11221;DHT22;8517;53.546;10.104;2023-05-07T05:25:27;11.70;99.90
11221;DHT22;8517;53.546;10.104;2023-05-07T05:27:54;11.70;99.90
11221;DHT22;8517;53.546;10.104;2023-05-07T05:30:21;11.70;99.90
11221;DHT22;8517;53.546;10.104;2023-05-07T05:32:47;11.70;99.90
11221;DHT22;8517;53.546;10.104;2023-05-07T05:35:14;11.70;99.90
11221;DHT22;8517;53.546;10.104;2023-05-07T05:37:41;11.80;99.90
11221;DHT22;8517;53.546;10.104;2023-05-07T05:40:09;11.70;99.90
11221;DHT22;8517;53.546;10.104;2023-05-07T05:42:37;11.80;99.90
11221;DHT22;8517;53.546;10.104;2023-05-07T05:45:05;11.80;99.90
11221;DHT22;8517;53.546;10.104;2023-05-07T05:47:32;11.80;99.90
11221;DHT22;8517;53.546;10.104;2023-05-07T05:49:59;11.80;99.90
11221;DHT22;8517;53.546;10.104;2023-05-07T05:52:26;11.80;99.90
11221;DHT22;8517;53.546;10.104;2023-05-07T05:54:53;11.80;99.90
11221;DHT22;8517;53.546;10.104;2023-05-07T05:57:20;11.80;99.90
11221;DHT22;8517;53.546;10.104;2023-05-07T05:59:49;11.80;99.90
11221;DHT22;8517;53.546;10.104;2023-05-07T06:02:16;11.80;99.90
11221;DHT22;8517;53.546;10.104;2023-05-07T06:04:42;11.90;99.90
11221;DHT22;8517;53.546;10.104;2023-05-07T06:07:09;11.90;99.90
11221;DHT22;8517;53.546;10.104;2023-05-07T06:09:36;11.90;99.90
11221;DHT22;8517;53.546;10.104;2023-05-07T06:12:03;11.90;99.90
11221;DHT22;8517;53.546;10.104;2023-05-07T06:14:30;11.90;99.90
11221;DHT22;8517;53.546;10.104;2023-05-07T06:16:58;11.90;99.90
11221;DHT22;8517;53.546;10.104;2023-05-07T06:19:25;12.00;99.90
11221;DHT22;8517;53.546;10.104;2023-05-07T06:21:53;12.00;99.90
11221;DHT22;8517;53.546;10.104;2023-05-07T06:24:21;12.00;99.90
11221;DHT22;8517;53.546;10.104;2023-05-07T06:26:48;12.10;99.90
11221;DHT22;8517;53.546;10.104;2023-05-07T06:29:15;12.00;99.90
11221;DHT22;8517;53.546;10.104;2023-05-07T06:31:42;12.10;99.90
11221;DHT22;8517;53.546;10.104;2023-05-07T06:34:10;12.10;99.90
11221;DHT22;8517;53.546;10.104;2023-05-07T06:36:39;12.10;99.90
11221;DHT22;8517;53.546;10.104;2023-05-07T06:39:06;12.10;99.90
11221;DHT22;8517;53.546;10.104;2023-05-07T06:41:36;12.10;99.90
11221;DHT22;8517;53.546;10.104;2023-05-07T06:44:04;12.10;99.90
11221;DHT22;8517;53.546;10.104;2023-05-07T06:46:31;12.10;99.90
11221;DHT22;8517;53.546;10.104;2023-05-07T06:48:58;12.10;99.90
11221;DHT22;8517;53.546;10.104;2023-05-07T06:51:26;12.10;99.90
11221;DHT22;8517;53.546;10.104;2023-05-07T06:53:53;12.20;99.90
11221;DHT22;8517;53.546;10.104;2023-05-07T06:56:20;12.20;99.90
11221;DHT22;8517;53.546;10.104;2023-05-07T06:58:48;12.20;99.90
11221;DHT22;8517;53.546;10.104;2023-05-07T07:01:15;12.20;99.90
11221;DHT22;8517;53.546;10.104;2023-05-07T07:03:41;12.30;99.90
11221;DHT22;8517;53.546;10.104;2023-05-07T07:06:08;12.30;99.90
11221;DHT22;8517;53.546;10.104;2023-05-07T07:08:36;12.30;99.90
11221;DHT22;8517;53.546;10.104;2023-05-07T07:11:04;12.20;99.90
11221;DHT22;8517;53.546;10.104;2023-05-07T07:13:30;12.30;99.90
11221;DHT22;8517;53.546;10.104;2023-05-07T07:15:57;12.30;99.90
11221;DHT22;8517;53.546;10.104;2023-05-07T07:18:24;12.30;99.90
11221;DHT22;8517;53.546;10.104;2023-05-07T07:20:51;12.40;99.90
11221;DHT22;8517;53.546;10.104;2023-05-07T07:23:18;12.40;99.90
11221;DHT22;8517;53.546;10.104;2023-05-07T07:25:46;12.40;99.90
11221;DHT22;8517;53.546;10.104;2023-05-07T07:28:13;12.40;99.90
11221;DHT22;8517;53.546;10.104;2023-05-07T07:30:40;12.50;99.90
11221;DHT22;8517;53.546;10.104;2023-05-07T07:33:07;12.50;99.90
11221;DHT22;8517;53.546;10.104;2023-05-07T07:35:34;12.60;99.90
11221;DHT22;8517;53.546;10.104;2023-05-07T07:38:01;12.60;99.90
11221;DHT22;8517;53.546;10.104;2023-05-07T07:40:28;12.60;99.90
11221;DHT22;8517;53.546;10.104;2023-05-07T07:42:56;12.60;99.90
11221;DHT22;8517;53.546;10.104;2023-05-07T07:45:24;12.60;99.90
11221;DHT22;8517;53.546;10.104;2023-05-07T07:47:50;12.60;99.90
11221;DHT22;8517;53.546;10.104;2023-05-07T07:50:17;12.70;99.90
11221;DHT22;8517;53.546;10.104;2023-05-07T07:52:45;12.70;99.90
11221;DHT22;8517;53.546;10.104;2023-05-07T07:55:12;12.70;99.90
11221;DHT22;8517;53.546;10.104;2023-05-07T07:57:39;12.70;99.90
11221;DHT22;8517;53.546;10.104;2023-05-07T08:00:08;12.70;99.90
11221;DHT22;8517;53.546;10.104;2023-05-07T08:02:35;12.80;99.90
11221;DHT22;8517;53.546;10.104;2023-05-07T08:05:02;12.80;99.90
11221;DHT22;8517;53.546;10.104;2023-05-07T08:07:29;12.80;99.90
11221;DHT22;8517;53.546;10.104;2023-05-07T08:09:56;12.80;99.90
11221;DHT22;8517;53.546;10.104;2023-05-07T08:12:23;12.80;99.90
11221;DHT22;8517;53.546;10.104;2023-05-07T08:14:50;12.80;99.90
11221;DHT22;8517;53.546;10.104;2023-05-07T08:17:18;12.80;99.90
11221;DHT22;8517;53.546;10.104;2023-05-07T08:19:47;12.80;99.90
11221;DHT22;8517;53.546;10.104;2023-05-07T08:22:14;12.80;99.90
11221;DHT22;8517;53.546;10.104;2023-05-07T08:24:41;12.90;99.90
11221;DHT22;8517;53.546;10.104;2023-05-07T08:27:08;12.90;99.90
11221;DHT22;8517;53.546;10.104;2023-05-07T08:29:34;12.90;99.90
11221;DHT22;8517;53.546;10.104;2023-05-07T08:32:01;13.00;99.90
11221;DHT22;8517;53.546;10.104;2023-05-07T08:34:30;13.00;99.90
11221;DHT22;8517;53.546;10.104;2023-05-07T08:36:56;12.90;99.90
11221;DHT22;8517;53.546;10.104;2023-05-07T08:39:23;12.90;99.90
11221;DHT22;8517;53.546;10.104;2023-05-07T08:41:52;12.90;99.90
11221;DHT22;8517;53.546;10.104;2023-05-07T08:44:22;12.90;99.90
11221;DHT22;8517;53.546;10.104;2023-05-07T08:46:53;12.90;99.90
11221;DHT22;8517;53.546;10.104;2023-05-07T08:49:22;12.90;99.90
11221;DHT22;8517;53.546;10.104;2023-05-07T08:51:50;12.90;99.90
11221;DHT22;8517;53.546;10.104;2023-05-07T08:54:17;12.90;99.90
11221;DHT22;8517;53.546;10.104;2023-05-07T08:56:45;12.90;99.90
11221;DHT22;8517;53.546;10.104;2023-05-07T08:59:12;12.90;99.90
11221;DHT22;8517;53.546;10.104;2023-05-07T09:01:38;13.00;99.90
11221;DHT22;8517;53.546;10.104;2023-05-07T09:04:05;13.00;99.90
11221;DHT22;8517;53.546;10.104;2023-05-07T09:06:33;13.00;99.90
11221;DHT22;8517;53.546;10.104;2023-05-07T09:09:01;13.10;99.90
11221;DHT22;8517;53.546;10.104;2023-05-07T09:11:30;13.10;99.90
11221;DHT22;8517;53.546;10.104;2023-05-07T09:13:58;13.20;99.90
11221;DHT22;8517;53.546;10.104;2023-05-07T09:16:27;13.20;99.90
11221;DHT22;8517;53.546;10.104;2023-05-07T09:18:56;13.20;99.90
11221;DHT22;8517;53.546;10.104;2023-05-07T09:21:23;13.30;99.90
11221;DHT22;8517;53.546;10.104;2023-05-07T09:23:51;13.30;99.90
11221;DHT22;8517;53.546;10.104;2023-05-07T09:26:21;13.30;99.90
11221;DHT22;8517;53.546;10.104;2023-05-07T09:28:48;13.40;99.90
11221;DHT22;8517;53.546;10.104;2023-05-07T09:31:15;13.40;99.90
11221;DHT22;8517;53.546;10.104;2023-05-07T09:33:41;13.40;99.90
11221;DHT22;8517;53.546;10.104;2023-05-07T09:36:09;13.50;99.90
11221;DHT22;8517;53.546;10.104;2023-05-07T09:38:37;13.50;99.90
11221;DHT22;8517;53.546;10.104;2023-05-07T09:41:05;13.50;99.90
11221;DHT22;8517;53.546;10.104;2023-05-07T09:43:34;13.60;99.90
11221;DHT22;8517;53.546;10.104;2023-05-07T09:46:03;13.60;99.90
11221;DHT22;8517;53.546;10.104;2023-05-07T09:48:35;13.50;99.90
11221;DHT22;8517;53.546;10.104;2023-05-07T09:51:09;13.60;99.90
11221;DHT22;8517;53.546;10.104;2023-05-07T09:53:38;13.50;99.90
11221;DHT22;8517;53.546;10.104;2023-05-07T09:56:06;13.50;99.90
11221;DHT22;8517;53.546;10.104;2023-05-07T09:58:37;13.50;99.90
11221;DHT22;8517;53.546;10.104;2023-05-07T10:01:05;13.50;99.90
11221;DHT22;8517;53.546;10.104;2023-05-07T10:03:33;13.40;99.90
11221;DHT22;8517;53.546;10.104;2023-05-07T10:06:02;13.50;99.90
11221;DHT22;8517;53.546;10.104;2023-05-07T10:08:31;13.50;99.90
11221;DHT22;8517;53.546;10.104;2023-05-07T10:10:58;13.50;99.90
11221;DHT22;8517;53.546;10.104;2023-05-07T10:13:26;13.60;99.90
11221;DHT22;8517;53.546;10.104;2023-05-07T10:15:55;13.60;99.90
11221;DHT22;8517;53.546;10.104;2023-05-07T10:18:22;13.70;99.90
11221;DHT22;8517;53.546;10.104;2023-05-07T10:20:55;13.80;99.90
11221;DHT22;8517;53.546;10.104;2023-05-07T10:23:24;13.90;99.90
11221;DHT22;8517;53.546;10.104;2023-05-07T10:25:54;13.80;99.90
11221;DHT22;8517;53.546;10.104;2023-05-07T10:28:23;13.90;99.90
11221;DHT22;8517;53.546;10.104;2023-05-07T10:31:01;14.00;99.90
11221;DHT22;8517;53.546;10.104;2023-05-07T10:33:33;14.00;99.90
11221;DHT22;8517;53.546;10.104;2023-05-07T10:36:01;14.00;99.90
11221;DHT22;8517;53.546;10.104;2023-05-07T10:38:30;14.00;99.90
11221;DHT22;8517;53.546;10.104;2023-05-07T10:40:57;14.10;99.90
11221;DHT22;8517;53.546;10.104;2023-05-07T10:43:24;14.10;99.90
11221;DHT22;8517;53.546;10.104;2023-05-07T10:46:13;14.20;99.90
11221;DHT22;8517;53.546;10.104;2023-05-07T10:49:11;14.20;99.90
11221;DHT22;8517;53.546;10.104;2023-05-07T10:51:38;14.20;99.90
11221;DHT22;8517;53.546;10.104;2023-05-07T10:54:21;14.30;99.90
11221;DHT22;8517;53.546;10.104;2023-05-07T10:56:49;14.30;99.90
11221;DHT22;8517;53.546;10.104;2023-05-07T10:59:38;14.40;99.90
11221;DHT22;8517;53.546;10.104;2023-05-07T11:02:10;14.50;99.90
11221;DHT22;8517;53.546;10.104;2023-05-07T11:04:39;14.50;99.90
11221;DHT22;8517;53.546;10.104;2023-05-07T11:07:30;14.60;99.90
11221;DHT22;8517;53.546;10.104;2023-05-07T11:10:00;14.60;99.90
11221;DHT22;8517;53.546;10.104;2023-05-07T11:12:48;14.70;99.90
11221;DHT22;8517;53.546;10.104;2023-05-07T11:15:32;14.80;99.90
11221;DHT22;8517;53.546;10.104;2023-05-07T11:18:01;14.80;99.90
11221;DHT22;8517;53.546;10.104;2023-05-07T11:20:47;14.90;99.90
11221;DHT22;8517;53.546;10.104;2023-05-07T11:26:45;15.00;99.90
11221;DHT22;8517;53.546;10.104;2023-05-07T11:29:13;15.00;99.90
11221;DHT22;8517;53.546;10.104;2023-05-07T11:31:41;15.30;99.90
11221;DHT22;8517;53.546;10.104;2023-05-07T11:34:12;15.10;99.90
11221;DHT22;8517;53.546;10.104;2023-05-07T11:36:43;15.20;99.90
11221;DHT22;8517;53.546;10.104;2023-05-07T11:39:28;15.30;99.90
11221;DHT22;8517;53.546;10.104;2023-05-07T11:41:55;15.40;99.90
11221;DHT22;8517;53.546;10.104;2023-05-07T11:44:22;15.50;99.90
11221;DHT22;8517;53.546;10.104;2023-05-07T11:46:49;15.60;99.90
11221;DHT22;8517;53.546;10.104;2023-05-07T11:49:17;15.60;99.90
11221;DHT22;8517;53.546;10.104;2023-05-07T11:51:44;15.60;99.90
11221;DHT22;8517;53.546;10.104;2023-05-07T11:54:15;15.60;99.90
11221;DHT22;8517;53.546;10.104;2023-05-07T11:56:44;15.60;99.90
11221;DHT22;8517;53.546;10.104;2023-05-07T11:59:11;15.70;99.90
11221;DHT22;8517;53.546;10.104;2023-05-07T12:01:38;15.70;99.90
11221;DHT22;8517;53.546;10.104;2023-05-07T12:04:05;15.70;99.90
11221;DHT22;8517;53.546;10.104;2023-05-07T12:06:36;15.80;99.90
11221;DHT22;8517;53.546;10.104;2023-05-07T12:09:04;15.80;99.90
11221;DHT22;8517;53.546;10.104;2023-05-07T12:11:32;15.80;99.90
11221;DHT22;8517;53.546;10.104;2023-05-07T12:14:00;15.90;99.90
11221;DHT22;8517;53.546;10.104;2023-05-07T12:16:27;15.90;99.90
11221;DHT22;8517;53.546;10.104;2023-05-07T12:18:54;16.00;99.90
11221;DHT22;8517;53.546;10.104;2023-05-07T12:21:23;16.10;99.90
11221;DHT22;8517;53.546;10.104;2023-05-07T12:23:51;16.10;99.90
11221;DHT22;8517;53.546;10.104;2023-05-07T12:26:19;16.20;99.90
11221;DHT22;8517;53.546;10.104;2023-05-07T12:28:47;16.20;99.90
11221;DHT22;8517;53.546;10.104;2023-05-07T12:31:14;16.30;99.90
11221;DHT22;8517;53.546;10.104;2023-05-07T12:33:44;16.40;99.90
11221;DHT22;8517;53.546;10.104;2023-05-07T12:36:17;16.40;99.90
11221;DHT22;8517;53.546;10.104;2023-05-07T12:38:44;16.50;99.90
11221;DHT22;8517;53.546;10.104;2023-05-07T12:41:12;16.50;99.90
11221;DHT22;8517;53.546;10.104;2023-05-07T12:43:39;16.50;99.90
11221;DHT22;8517;53.546;10.104;2023-05-07T12:46:07;16.60;99.90
11221;DHT22;8517;53.546;10.104;2023-05-07T12:48:36;16.60;99.90
11221;DHT22;8517;53.546;10.104;2023-05-07T12:51:03;16.60;99.90
11221;DHT22;8517;53.546;10.104;2023-05-07T12:53:31;16.80;99.90
11221;DHT22;8517;53.546;10.104;2023-05-07T12:55:59;16.80;99.90
11221;DHT22;8517;53.546;10.104;2023-05-07T12:58:28;16.90;99.90
11221;DHT22;8517;53.546;10.104;2023-05-07T13:00:58;16.90;99.90
11221;DHT22;8517;53.546;10.104;2023-05-07T13:03:29;16.90;99.90
11221;DHT22;8517;53.546;10.104;2023-05-07T13:06:06;17.00;99.90
11221;DHT22;8517;53.546;10.104;2023-05-07T13:08:36;17.00;99.90
11221;DHT22;8517;53.546;10.104;2023-05-07T13:11:07;17.00;99.90
11221;DHT22;8517;53.546;10.104;2023-05-07T13:13:37;17.00;99.90
11221;DHT22;8517;53.546;10.104;2023-05-07T13:16:06;17.00;99.90
11221;DHT22;8517;53.546;10.104;2023-05-07T13:18:34;17.10;99.90
11221;DHT22;8517;53.546;10.104;2023-05-07T13:21:01;17.10;99.90
11221;DHT22;8517;53.546;10.104;2023-05-07T13:23:28;17.10;99.90
11221;DHT22;8517;53.546;10.104;2023-05-07T13:25:55;17.10;99.90
11221;DHT22;8517;53.546;10.104;2023-05-07T13:28:22;17.10;99.90
11221;DHT22;8517;53.546;10.104;2023-05-07T13:30:51;17.20;99.90
11221;DHT22;8517;53.546;10.104;2023-05-07T13:33:18;17.20;99.90
11221;DHT22;8517;53.546;10.104;2023-05-07T13:35:46;17.20;99.90
11221;DHT22;8517;53.546;10.104;2023-05-07T13:38:14;17.30;99.90
11221;DHT22;8517;53.546;10.104;2023-05-07T13:40:41;17.30;99.90
11221;DHT22;8517;53.546;10.104;2023-05-07T13:43:08;17.30;99.90
11221;DHT22;8517;53.546;10.104;2023-05-07T13:45:36;17.40;99.90
11221;DHT22;8517;53.546;10.104;2023-05-07T13:48:04;17.40;99.90
11221;DHT22;8517;53.546;10.104;2023-05-07T13:50:31;17.50;99.90
11221;DHT22;8517;53.546;10.104;2023-05-07T13:52:58;17.50;99.90
11221;DHT22;8517;53.546;10.104;2023-05-07T13:55:25;17.50;99.90
11221;DHT22;8517;53.546;10.104;2023-05-07T13:57:56;17.60;99.90
11221;DHT22;8517;53.546;10.104;2023-05-07T14:00:24;17.70;99.90
11221;DHT22;8517;53.546;10.104;2023-05-07T14:02:51;17.70;99.90
11221;DHT22;8517;53.546;10.104;2023-05-07T14:05:19;17.80;99.90
11221;DHT22;8517;53.546;10.104;2023-05-07T14:07:48;17.80;99.90
11221;DHT22;8517;53.546;10.104;2023-05-07T14:10:17;17.80;99.90
11221;DHT22;8517;53.546;10.104;2023-05-07T14:12:44;17.80;99.90
11221;DHT22;8517;53.546;10.104;2023-05-07T14:15:16;17.90;99.90
11221;DHT22;8517;53.546;10.104;2023-05-07T14:17:43;17.90;99.90
11221;DHT22;8517;53.546;10.104;2023-05-07T14:20:11;17.90;99.90
11221;DHT22;8517;53.546;10.104;2023-05-07T14:22:39;18.00;99.90
11221;DHT22;8517;53.546;10.104;2023-05-07T14:25:07;18.10;99.90
11221;DHT22;8517;53.546;10.104;2023-05-07T14:27:35;18.10;99.90
11221;DHT22;8517;53.546;10.104;2023-05-07T14:30:01;18.10;99.90
11221;DHT22;8517;53.546;10.104;2023-05-07T14:32:28;18.10;99.90
11221;DHT22;8517;53.546;10.104;2023-05-07T14:35:04;18.10;99.90
11221;DHT22;8517;53.546;10.104;2023-05-07T14:37:31;18.20;99.90
11221;DHT22;8517;53.546;10.104;2023-05-07T14:40:03;18.20;99.90
11221;DHT22;8517;53.546;10.104;2023-05-07T14:42:32;18.30;99.90
11221;DHT22;8517;53.546;10.104;2023-05-07T14:44:59;18.30;99.90
11221;DHT22;8517;53.546;10.104;2023-05-07T14:47:25;18.20;99.90
11221;DHT22;8517;53.546;10.104;2023-05-07T14:52:43;18.10;99.90
11221;DHT22;8517;53.546;10.104;2023-05-07T14:55:12;18.10;99.90
11221;DHT22;8517;53.546;10.104;2023-05-07T14:57:38;18.00;99.90
11221;DHT22;8517;53.546;10.104;2023-05-07T15:00:06;18.10;99.90
11221;DHT22;8517;53.546;10.104;2023-05-07T15:02:35;18.10;99.90
11221;DHT22;8517;53.546;10.104;2023-05-07T15:05:02;18.10;99.90
11221;DHT22;8517;53.546;10.104;2023-05-07T15:07:29;18.10;99.90
11221;DHT22;8517;53.546;10.104;2023-05-07T15:09:58;18.10;99.90
11221;DHT22;8517;53.546;10.104;2023-05-07T15:12:26;18.10;99.90
11221;DHT22;8517;53.546;10.104;2023-05-07T15:14:52;18.20;99.90
11221;DHT22;8517;53.546;10.104;2023-05-07T15:17:19;18.20;99.90
11221;DHT22;8517;53.546;10.104;2023-05-07T15:19:46;18.20;99.90
11221;DHT22;8517;53.546;10.104;2023-05-07T15:22:13;18.20;99.90
11221;DHT22;8517;53.546;10.104;2023-05-07T15:24:40;18.20;99.90
11221;DHT22;8517;53.546;10.104;2023-05-07T15:27:07;18.30;99.90
11221;DHT22;8517;53.546;10.104;2023-05-07T15:29:35;18.20;99.90
11221;DHT22;8517;53.546;10.104;2023-05-07T15:32:02;18.20;99.90
11221;DHT22;8517;53.546;10.104;2023-05-07T15:34:29;18.20;99.90
11221;DHT22;8517;53.546;10.104;2023-05-07T15:36:56;18.30;99.90
11221;DHT22;8517;53.546;10.104;2023-05-07T15:39:25;18.30;99.90
11221;DHT22;8517;53.546;10.104;2023-05-07T15:41:54;18.20;99.90